sensor_id;sensor_type;location;lat;lon;timestamp;temperature;humidity
58309;DHT22;44117;57.142;24.826;2022-12-07T00:01:35;-2.10;99.90
58309;DHT22;44117;57.142;24.826;2022-12-07T00:04:04;-2.10;99.90
58309;DHT22;44117;57.142;24.826;2022-12-07T00:06:37;-2.10;99.90
58309;DHT22;44117;57.142;24.826;2022-12-07T00:09:06;-2.10;99.90
58309;DHT22;44117;57.142;24.826;2022-12-07T00:11:33;-2.10;99.90
58309;DHT22;44117;57.142;24.826;2022-12-07T00:14:03;-2.00;99.90
58309;DHT22;44117;57.142;24.826;2022-12-07T00:16:32;-2.10;99.90
58309;DHT22;44117;57.142;24.826;2022-12-07T00:19:04;-2.10;99.90
58309;DHT22;44117;57.142;24.826;2022-12-07T00:21:38;-2.00;99.90
58309;DHT22;44117;57.142;24.826;2022-12-07T00:24:06;-2.10;99.90
58309;DHT22;44117;57.142;24.826;2022-12-07T00:26:35;-2.10;99.90
58309;DHT22;44117;57.142;24.826;2022-12-07T00:29:09;-2.10;99.90
58309;DHT22;44117;57.142;24.826;2022-12-07T00:31:38;-2.10;99.90
58309;DHT22;44117;57.142;24.826;2022-12-07T00:34:13;-2.10;99.90
58309;DHT22;44117;57.142;24.826;2022-12-07T00:36:41;-2.10;99.90
58309;DHT22;44117;57.142;24.826;2022-12-07T00:39:08;-2.10;99.90
58309;DHT22;44117;57.142;24.826;2022-12-07T00:41:36;-2.10;99.90
58309;DHT22;44117;57.142;24.826;2022-12-07T00:44:03;-2.10;99.90
58309;DHT22;44117;57.142;24.826;2022-12-07T00:46:31;-2.10;99.90
58309;DHT22;44117;57.142;24.826;2022-12-07T00:48:58;-2.10;99.90
58309;DHT22;44117;57.142;24.826;2022-12-07T00:51:26;-2.10;99.90
58309;DHT22;44117;57.142;24.826;2022-12-07T00:53:53;-2.10;99.90
58309;DHT22;44117;57.142;24.826;2022-12-07T00:56:24;-2.10;99.90
58309;DHT22;44117;57.142;24.826;2022-12-07T00:58:53;-2.10;99.90
58309;DHT22;44117;57.142;24.826;2022-12-07T01:01:21;-2.10;99.90
58309;DHT22;44117;57.142;24.826;2022-12-07T01:03:49;-2.10;99.90
58309;DHT22;44117;57.142;24.826;2022-12-07T01:06:21;-2.10;99.90
58309;DHT22;44117;57.142;24.826;2022-12-07T01:08:49;-2.10;99.90
58309;DHT22;44117;57.142;24.826;2022-12-07T01:11:20;-2.10;99.90
58309;DHT22;44117;57.142;24.826;2022-12-07T01:13:50;-2.10;99.90
58309;DHT22;44117;57.142;24.826;2022-12-07T01:16:18;-2.10;99.90
58309;DHT22;44117;57.142;24.826;2022-12-07T01:18:48;-2.10;99.90
58309;DHT22;44117;57.142;24.826;2022-12-07T01:21:35;-2.10;99.90
58309;DHT22;44117;57.142;24.826;2022-12-07T01:24:08;-2.10;99.90
58309;DHT22;44117;57.142;24.826;2022-12-07T01:26:36;-2.10;99.90
58309;DHT22;44117;57.142;24.826;2022-12-07T01:29:03;-2.10;99.90
58309;DHT22;44117;57.142;24.826;2022-12-07T01:31:31;-2.10;99.90
58309;DHT22;44117;57.142;24.826;2022-12-07T01:33:59;-2.10;99.90
58309;DHT22;44117;57.142;24.826;2022-12-07T01:36:30;-2.10;99.90
58309;DHT22;44117;57.142;24.826;2022-12-07T01:39:00;-2.10;99.90
58309;DHT22;44117;57.142;24.826;2022-12-07T01:41:30;-2.10;99.90
58309;DHT22;44117;57.142;24.826;2022-12-07T01:46:57;-2.10;99.90
58309;DHT22;44117;57.142;24.826;2022-12-07T01:49:36;-2.10;99.90
58309;DHT22;44117;57.142;24.826;2022-12-07T01:52:20;-2.10;99.90
58309;DHT22;44117;57.142;24.826;2022-12-07T01:54:53;-2.10;99.90
58309;DHT22;44117;57.142;24.826;2022-12-07T01:57:21;-2.10;99.90
58309;DHT22;44117;57.142;24.826;2022-12-07T01:59:51;-2.10;99.90
58309;DHT22;44117;57.142;24.826;2022-12-07T02:02:31;-2.10;99.90
58309;DHT22;44117;57.142;24.826;2022-12-07T02:05:02;-2.10;99.90
58309;DHT22;44117;57.142;24.826;2022-12-07T02:07:32;-2.10;99.90
58309;DHT22;44117;57.142;24.826;2022-12-07T02:10:20;-2.10;99.90
58309;DHT22;44117;57.142;24.826;2022-12-07T02:12:55;-2.00;99.90
58309;DHT22;44117;57.142;24.826;2022-12-07T02:21:20;-2.10;99.90
58309;DHT22;44117;57.142;24.826;2022-12-07T02:30:40;-2.00;99.90
58309;DHT22;44117;57.142;24.826;2022-12-07T02:33:05;-2.00;99.90
58309;DHT22;44117;57.142;24.826;2022-12-07T02:35:48;-2.00;99.90
58309;DHT22;44117;57.142;24.826;2022-12-07T02:38:24;-2.00;99.90
58309;DHT22;44117;57.142;24.826;2022-12-07T02:41:02;-2.00;99.90
58309;DHT22;44117;57.142;24.826;2022-12-07T02:43:43;-2.00;99.90
58309;DHT22;44117;57.142;24.826;2022-12-07T02:46:25;-2.00;99.90
58309;DHT22;44117;57.142;24.826;2022-12-07T02:48:55;-2.00;99.90
58309;DHT22;44117;57.142;24.826;2022-12-07T02:51:23;-2.00;99.90
58309;DHT22;44117;57.142;24.826;2022-12-07T02:53:50;-2.00;99.90
58309;DHT22;44117;57.142;24.826;2022-12-07T03:05:12;-2.00;99.90
58309;DHT22;44117;57.142;24.826;2022-12-07T03:08:21;-2.00;99.90
58309;DHT22;44117;57.142;24.826;2022-12-07T03:13:45;-2.00;99.90
58309;DHT22;44117;57.142;24.826;2022-12-07T03:16:21;-2.00;99.90
58309;DHT22;44117;57.142;24.826;2022-12-07T03:21:23;-2.00;99.90
58309;DHT22;44117;57.142;24.826;2022-12-07T03:23:55;-2.00;99.90
58309;DHT22;44117;57.142;24.826;2022-12-07T03:26:31;-2.00;99.90
58309;DHT22;44117;57.142;24.826;2022-12-07T03:29:07;-1.90;99.90
58309;DHT22;44117;57.142;24.826;2022-12-07T03:31:40;-2.00;99.90
58309;DHT22;44117;57.142;24.826;2022-12-07T03:34:29;-2.00;99.90
58309;DHT22;44117;57.142;24.826;2022-12-07T03:37:26;-2.00;99.90
58309;DHT22;44117;57.142;24.826;2022-12-07T03:40:10;-2.00;99.90
58309;DHT22;44117;57.142;24.826;2022-12-07T03:42:40;-2.00;99.90
58309;DHT22;44117;57.142;24.826;2022-12-07T03:45:08;-2.00;99.90
58309;DHT22;44117;57.142;24.826;2022-12-07T03:47:47;-2.00;99.90
58309;DHT22;44117;57.142;24.826;2022-12-07T03:50:43;-2.00;99.90
58309;DHT22;44117;57.142;24.826;2022-12-07T03:53:38;-2.00;99.90
58309;DHT22;44117;57.142;24.826;2022-12-07T03:56:08;-2.00;99.90
58309;DHT22;44117;57.142;24.826;2022-12-07T03:58:37;-2.00;99.90
58309;DHT22;44117;57.142;24.826;2022-12-07T04:01:05;-2.00;99.90
58309;DHT22;44117;57.142;24.826;2022-12-07T04:03:32;-2.00;99.90
58309;DHT22;44117;57.142;24.826;2022-12-07T04:05:59;-2.00;99.90
58309;DHT22;44117;57.142;24.826;2022-12-07T04:08:27;-2.00;99.90
58309;DHT22;44117;57.142;24.826;2022-12-07T04:10:54;-2.00;99.90
58309;DHT22;44117;57.142;24.826;2022-12-07T04:13:22;-2.00;99.90
58309;DHT22;44117;57.142;24.826;2022-12-07T04:15:49;-2.00;99.90
58309;DHT22;44117;57.142;24.826;2022-12-07T04:18:17;-2.00;99.90
58309;DHT22;44117;57.142;24.826;2022-12-07T04:20:45;-2.00;99.90
58309;DHT22;44117;57.142;24.826;2022-12-07T04:23:13;-2.00;99.90
58309;DHT22;44117;57.142;24.826;2022-12-07T04:25:40;-2.00;99.90
58309;DHT22;44117;57.142;24.826;2022-12-07T04:28:08;-1.90;99.90
58309;DHT22;44117;57.142;24.826;2022-12-07T04:30:35;-2.00;99.90
58309;DHT22;44117;57.142;24.826;2022-12-07T04:33:02;-1.90;99.90
58309;DHT22;44117;57.142;24.826;2022-12-07T04:35:30;-1.90;99.90
58309;DHT22;44117;57.142;24.826;2022-12-07T04:37:57;-1.90;99.90
58309;DHT22;44117;57.142;24.826;2022-12-07T04:40:24;-1.90;99.90
58309;DHT22;44117;57.142;24.826;2022-12-07T04:42:52;-1.90;99.90
58309;DHT22;44117;57.142;24.826;2022-12-07T04:45:19;-1.90;99.90
58309;DHT22;44117;57.142;24.826;2022-12-07T04:47:46;-1.90;99.90
58309;DHT22;44117;57.142;24.826;2022-12-07T04:50:14;-1.90;99.90
58309;DHT22;44117;57.142;24.826;2022-12-07T04:52:41;-1.90;99.90
58309;DHT22;44117;57.142;24.826;2022-12-07T04:55:08;-1.90;99.90
58309;DHT22;44117;57.142;24.826;2022-12-07T04:57:36;-1.90;99.90
58309;DHT22;44117;57.142;24.826;2022-12-07T05:00:04;-1.90;99.90
58309;DHT22;44117;57.142;24.826;2022-12-07T05:02:31;-1.90;99.90
58309;DHT22;44117;57.142;24.826;2022-12-07T05:04:59;-1.90;99.90
58309;DHT22;44117;57.142;24.826;2022-12-07T05:07:26;-1.90;99.90
58309;DHT22;44117;57.142;24.826;2022-12-07T05:09:53;-1.90;99.90
58309;DHT22;44117;57.142;24.826;2022-12-07T05:12:21;-1.90;99.90
58309;DHT22;44117;57.142;24.826;2022-12-07T05:14:48;-1.90;99.90
58309;DHT22;44117;57.142;24.826;2022-12-07T05:17:16;-1.90;99.90
58309;DHT22;44117;57.142;24.826;2022-12-07T05:19:43;-1.90;99.90
58309;DHT22;44117;57.142;24.826;2022-12-07T05:22:11;-1.90;99.90
58309;DHT22;44117;57.142;24.826;2022-12-07T05:24:40;-1.90;99.90
58309;DHT22;44117;57.142;24.826;2022-12-07T05:27:07;-1.90;99.90
58309;DHT22;44117;57.142;24.826;2022-12-07T05:29:34;-1.90;99.90
58309;DHT22;44117;57.142;24.826;2022-12-07T05:32:02;-1.90;99.90
58309;DHT22;44117;57.142;24.826;2022-12-07T05:34:29;-2.00;99.90
58309;DHT22;44117;57.142;24.826;2022-12-07T05:36:57;-1.90;99.90
58309;DHT22;44117;57.142;24.826;2022-12-07T05:39:24;-1.90;99.90
58309;DHT22;44117;57.142;24.826;2022-12-07T05:42:00;-1.90;99.90
58309;DHT22;44117;57.142;24.826;2022-12-07T05:44:44;-1.90;99.90
58309;DHT22;44117;57.142;24.826;2022-12-07T05:47:15;-1.90;99.90
58309;DHT22;44117;57.142;24.826;2022-12-07T05:49:46;-1.90;99.90
58309;DHT22;44117;57.142;24.826;2022-12-07T05:52:14;-1.90;99.90
58309;DHT22;44117;57.142;24.826;2022-12-07T05:54:41;-1.90;99.90
58309;DHT22;44117;57.142;24.826;2022-12-07T05:57:09;-1.90;99.90
58309;DHT22;44117;57.142;24.826;2022-12-07T05:59:36;-1.90;99.90
58309;DHT22;44117;57.142;24.826;2022-12-07T06:02:12;-1.90;99.90
58309;DHT22;44117;57.142;24.826;2022-12-07T06:04:43;-1.90;99.90
58309;DHT22;44117;57.142;24.826;2022-12-07T06:07:12;-2.00;99.90
58309;DHT22;44117;57.142;24.826;2022-12-07T06:09:40;-1.90;99.90
58309;DHT22;44117;57.142;24.826;2022-12-07T06:12:10;-1.90;99.90
58309;DHT22;44117;57.142;24.826;2022-12-07T06:14:56;-1.90;99.90
58309;DHT22;44117;57.142;24.826;2022-12-07T06:17:23;-2.00;99.90
58309;DHT22;44117;57.142;24.826;2022-12-07T06:19:51;-2.00;99.90
58309;DHT22;44117;57.142;24.826;2022-12-07T06:22:19;-2.00;99.90
58309;DHT22;44117;57.142;24.826;2022-12-07T06:24:46;-2.00;99.90
58309;DHT22;44117;57.142;24.826;2022-12-07T06:27:14;-2.00;99.90
58309;DHT22;44117;57.142;24.826;2022-12-07T06:29:41;-2.00;99.90
58309;DHT22;44117;57.142;24.826;2022-12-07T06:32:09;-2.00;99.90
58309;DHT22;44117;57.142;24.826;2022-12-07T06:34:36;-2.00;99.90
58309;DHT22;44117;57.142;24.826;2022-12-07T06:37:04;-2.00;99.90
58309;DHT22;44117;57.142;24.826;2022-12-07T06:39:34;-2.00;99.90
58309;DHT22;44117;57.142;24.826;2022-12-07T06:42:01;-1.90;99.90
58309;DHT22;44117;57.142;24.826;2022-12-07T06:44:29;-2.00;99.90
58309;DHT22;44117;57.142;24.826;2022-12-07T06:46:56;-2.00;99.90
58309;DHT22;44117;57.142;24.826;2022-12-07T06:49:48;-2.00;99.90
58309;DHT22;44117;57.142;24.826;2022-12-07T06:52:17;-2.00;99.90
58309;DHT22;44117;57.142;24.826;2022-12-07T06:54:44;-2.10;99.90
58309;DHT22;44117;57.142;24.826;2022-12-07T06:57:12;-2.00;99.90
58309;DHT22;44117;57.142;24.826;2022-12-07T06:59:40;-2.00;99.90
58309;DHT22;44117;57.142;24.826;2022-12-07T07:02:08;-2.00;99.90
58309;DHT22;44117;57.142;24.826;2022-12-07T07:04:36;-2.00;99.90
58309;DHT22;44117;57.142;24.826;2022-12-07T07:07:03;-2.00;99.90
58309;DHT22;44117;57.142;24.826;2022-12-07T07:09:31;-2.00;99.90
58309;DHT22;44117;57.142;24.826;2022-12-07T07:11:58;-2.00;99.90
58309;DHT22;44117;57.142;24.826;2022-12-07T07:14:25;-2.00;99.90
58309;DHT22;44117;57.142;24.826;2022-12-07T07:16:53;-2.00;99.90
58309;DHT22;44117;57.142;24.826;2022-12-07T07:19:20;-2.00;99.90
58309;DHT22;44117;57.142;24.826;2022-12-07T07:21:47;-2.00;99.90
58309;DHT22;44117;57.142;24.826;2022-12-07T07:24:17;-2.00;99.90
58309;DHT22;44117;57.142;24.826;2022-12-07T07:26:45;-2.00;99.90
58309;DHT22;44117;57.142;24.826;2022-12-07T07:29:15;-2.00;99.90
58309;DHT22;44117;57.142;24.826;2022-12-07T07:31:42;-2.00;99.90
58309;DHT22;44117;57.142;24.826;2022-12-07T07:34:09;-2.00;99.90
58309;DHT22;44117;57.142;24.826;2022-12-07T07:36:40;-2.00;99.90
58309;DHT22;44117;57.142;24.826;2022-12-07T07:39:07;-2.00;99.90
58309;DHT22;44117;57.142;24.826;2022-12-07T07:41:37;-2.00;99.90
58309;DHT22;44117;57.142;24.826;2022-12-07T07:44:05;-2.00;99.90
58309;DHT22;44117;57.142;24.826;2022-12-07T07:46:32;-2.00;99.90
58309;DHT22;44117;57.142;24.826;2022-12-07T07:49:00;-2.00;99.90
58309;DHT22;44117;57.142;24.826;2022-12-07T07:51:27;-2.00;99.90
58309;DHT22;44117;57.142;24.826;2022-12-07T07:53:54;-2.00;99.90
58309;DHT22;44117;57.142;24.826;2022-12-07T07:56:22;-2.00;99.90
58309;DHT22;44117;57.142;24.826;2022-12-07T07:58:52;-2.00;99.90
58309;DHT22;44117;57.142;24.826;2022-12-07T08:01:22;-2.00;99.90
58309;DHT22;44117;57.142;24.826;2022-12-07T08:03:50;-2.00;99.90
58309;DHT22;44117;57.142;24.826;2022-12-07T08:06:18;-2.00;99.90
58309;DHT22;44117;57.142;24.826;2022-12-07T08:08:46;-2.00;99.90
58309;DHT22;44117;57.142;24.826;2022-12-07T08:11:14;-2.00;99.90
58309;DHT22;44117;57.142;24.826;2022-12-07T08:13:41;-2.00;99.90
58309;DHT22;44117;57.142;24.826;2022-12-07T08:16:10;-2.00;99.90
58309;DHT22;44117;57.142;24.826;2022-12-07T08:18:39;-1.90;99.90
58309;DHT22;44117;57.142;24.826;2022-12-07T08:21:09;-1.90;99.90
58309;DHT22;44117;57.142;24.826;2022-12-07T08:23:37;-1.90;99.90
58309;DHT22;44117;57.142;24.826;2022-12-07T08:26:09;-1.90;99.90
58309;DHT22;44117;57.142;24.826;2022-12-07T08:28:36;-1.90;99.90
58309;DHT22;44117;57.142;24.826;2022-12-07T08:31:13;-1.90;99.90
58309;DHT22;44117;57.142;24.826;2022-12-07T08:33:46;-1.90;99.90
58309;DHT22;44117;57.142;24.826;2022-12-07T08:36:15;-1.90;99.90
58309;DHT22;44117;57.142;24.826;2022-12-07T08:38:43;-1.90;99.90
58309;DHT22;44117;57.142;24.826;2022-12-07T08:41:30;-1.90;99.90
58309;DHT22;44117;57.142;24.826;2022-12-07T08:43:57;-1.90;99.90
58309;DHT22;44117;57.142;24.826;2022-12-07T08:46:31;-1.90;99.90
58309;DHT22;44117;57.142;24.826;2022-12-07T08:49:11;-2.00;99.90
58309;DHT22;44117;57.142;24.826;2022-12-07T08:51:40;-1.90;99.90
58309;DHT22;44117;57.142;24.826;2022-12-07T08:54:16;-2.00;99.90
58309;DHT22;44117;57.142;24.826;2022-12-07T08:56:47;-1.90;99.90
58309;DHT22;44117;57.142;24.826;2022-12-07T08:59:25;-2.00;99.90
58309;DHT22;44117;57.142;24.826;2022-12-07T09:01:53;-2.00;99.90
58309;DHT22;44117;57.142;24.826;2022-12-07T09:04:21;-2.00;99.90
58309;DHT22;44117;57.142;24.826;2022-12-07T09:06:48;-2.00;99.90
58309;DHT22;44117;57.142;24.826;2022-12-07T09:09:16;-2.00;99.90
58309;DHT22;44117;57.142;24.826;2022-12-07T09:11:43;-2.00;99.90
58309;DHT22;44117;57.142;24.826;2022-12-07T09:14:12;-2.00;99.90
58309;DHT22;44117;57.142;24.826;2022-12-07T09:16:40;-2.00;99.90
58309;DHT22;44117;57.142;24.826;2022-12-07T09:19:08;-2.00;99.90
58309;DHT22;44117;57.142;24.826;2022-12-07T09:21:38;-1.90;99.90
58309;DHT22;44117;57.142;24.826;2022-12-07T09:24:07;-2.00;99.90
58309;DHT22;44117;57.142;24.826;2022-12-07T09:26:34;-2.00;99.90
58309;DHT22;44117;57.142;24.826;2022-12-07T09:29:03;-1.90;99.90
58309;DHT22;44117;57.142;24.826;2022-12-07T09:31:34;-2.00;99.90
58309;DHT22;44117;57.142;24.826;2022-12-07T09:34:07;-2.00;99.90
58309;DHT22;44117;57.142;24.826;2022-12-07T09:36:35;-2.00;99.90
58309;DHT22;44117;57.142;24.826;2022-12-07T09:39:03;-2.00;99.90
58309;DHT22;44117;57.142;24.826;2022-12-07T09:41:32;-2.00;99.90
58309;DHT22;44117;57.142;24.826;2022-12-07T09:44:06;-2.00;99.90
58309;DHT22;44117;57.142;24.826;2022-12-07T09:46:37;-2.00;99.90
58309;DHT22;44117;57.142;24.826;2022-12-07T09:49:19;-2.00;99.90
58309;DHT22;44117;57.142;24.826;2022-12-07T09:52:32;-2.00;99.90
58309;DHT22;44117;57.142;24.826;2022-12-07T09:55:14;-2.00;99.90
58309;DHT22;44117;57.142;24.826;2022-12-07T09:57:43;-2.00;99.90
58309;DHT22;44117;57.142;24.826;2022-12-07T10:00:14;-2.00;99.90
58309;DHT22;44117;57.142;24.826;2022-12-07T10:02:52;-1.90;99.90
58309;DHT22;44117;57.142;24.826;2022-12-07T10:05:32;-1.90;99.90
58309;DHT22;44117;57.142;24.826;2022-12-07T10:08:04;-1.80;99.90
58309;DHT22;44117;57.142;24.826;2022-12-07T10:10:34;-1.80;99.90
58309;DHT22;44117;57.142;24.826;2022-12-07T10:13:13;-1.80;99.90
58309;DHT22;44117;57.142;24.826;2022-12-07T10:15:55;-1.80;99.90
58309;DHT22;44117;57.142;24.826;2022-12-07T10:18:38;-1.80;99.90
58309;DHT22;44117;57.142;24.826;2022-12-07T10:23:41;-1.80;99.90
58309;DHT22;44117;57.142;24.826;2022-12-07T10:26:32;-1.80;99.90
58309;DHT22;44117;57.142;24.826;2022-12-07T10:29:12;-1.80;99.90
58309;DHT22;44117;57.142;24.826;2022-12-07T10:31:40;-1.80;99.90
58309;DHT22;44117;57.142;24.826;2022-12-07T10:36:54;-1.80;99.90
58309;DHT22;44117;57.142;24.826;2022-12-07T10:39:51;-1.80;99.90
58309;DHT22;44117;57.142;24.826;2022-12-07T10:42:26;-1.90;99.90
58309;DHT22;44117;57.142;24.826;2022-12-07T10:45:16;-1.90;99.90
58309;DHT22;44117;57.142;24.826;2022-12-07T10:58:40;-1.80;99.90
58309;DHT22;44117;57.142;24.826;2022-12-07T11:15:26;-1.90;99.90
58309;DHT22;44117;57.142;24.826;2022-12-07T11:20:56;-1.90;99.90
58309;DHT22;44117;57.142;24.826;2022-12-07T11:35:05;-1.90;99.90
58309;DHT22;44117;57.142;24.826;2022-12-07T11:37:37;-1.90;99.90
58309;DHT22;44117;57.142;24.826;2022-12-07T11:43:04;-1.80;99.90
58309;DHT22;44117;57.142;24.826;2022-12-07T11:45:34;-1.90;99.90
58309;DHT22;44117;57.142;24.826;2022-12-07T11:50:54;-1.90;99.90
58309;DHT22;44117;57.142;24.826;2022-12-07T11:53:29;-1.90;99.90
58309;DHT22;44117;57.142;24.826;2022-12-07T12:01:39;-1.90;99.90
58309;DHT22;44117;57.142;24.826;2022-12-07T12:06:41;-1.90;99.90
58309;DHT22;44117;57.142;24.826;2022-12-07T12:18:22;-2.10;99.90
58309;DHT22;44117;57.142;24.826;2022-12-07T12:21:00;-2.00;99.90
58309;DHT22;44117;57.142;24.826;2022-12-07T12:23:43;-2.10;99.90
58309;DHT22;44117;57.142;24.826;2022-12-07T12:26:32;-2.10;99.90
58309;DHT22;44117;57.142;24.826;2022-12-07T12:29:26;-2.10;99.90
58309;DHT22;44117;57.142;24.826;2022-12-07T12:32:17;-2.10;99.90
58309;DHT22;44117;57.142;24.826;2022-12-07T12:42:55;-2.20;99.90
58309;DHT22;44117;57.142;24.826;2022-12-07T12:45:28;-2.10;99.90
58309;DHT22;44117;57.142;24.826;2022-12-07T12:50:42;-2.10;99.90
58309;DHT22;44117;57.142;24.826;2022-12-07T12:53:24;-2.20;99.90
58309;DHT22;44117;57.142;24.826;2022-12-07T12:58:40;-2.20;99.90
58309;DHT22;44117;57.142;24.826;2022-12-07T13:01:32;-2.20;99.90
58309;DHT22;44117;57.142;24.826;2022-12-07T13:04:01;-2.20;99.90
58309;DHT22;44117;57.142;24.826;2022-12-07T13:06:35;-2.20;99.90
58309;DHT22;44117;57.142;24.826;2022-12-07T13:09:21;-2.20;99.90
58309;DHT22;44117;57.142;24.826;2022-12-07T13:12:02;-2.30;99.90
58309;DHT22;44117;57.142;24.826;2022-12-07T13:14:54;-2.20;99.90
58309;DHT22;44117;57.142;24.826;2022-12-07T13:19:59;-2.30;99.90
58309;DHT22;44117;57.142;24.826;2022-12-07T13:27:41;-2.40;99.90
58309;DHT22;44117;57.142;24.826;2022-12-07T13:30:19;-2.30;99.90
58309;DHT22;44117;57.142;24.826;2022-12-07T13:32:53;-2.30;99.90
58309;DHT22;44117;57.142;24.826;2022-12-07T13:35:35;-2.40;99.90
58309;DHT22;44117;57.142;24.826;2022-12-07T13:38:14;-2.30;99.90
58309;DHT22;44117;57.142;24.826;2022-12-07T13:41:11;-2.40;99.90
58309;DHT22;44117;57.142;24.826;2022-12-07T13:43:50;-2.30;99.90
58309;DHT22;44117;57.142;24.826;2022-12-07T13:46:22;-2.40;99.90
58309;DHT22;44117;57.142;24.826;2022-12-07T13:48:52;-2.40;99.90
58309;DHT22;44117;57.142;24.826;2022-12-07T13:51:24;-2.40;99.90
58309;DHT22;44117;57.142;24.826;2022-12-07T13:54:00;-2.40;99.90
58309;DHT22;44117;57.142;24.826;2022-12-07T13:56:32;-2.40;99.90
58309;DHT22;44117;57.142;24.826;2022-12-07T13:59:00;-2.40;99.90
58309;DHT22;44117;57.142;24.826;2022-12-07T14:01:30;-2.40;99.90
58309;DHT22;44117;57.142;24.826;2022-12-07T14:04:37;-2.40;99.90
58309;DHT22;44117;57.142;24.826;2022-12-07T14:07:48;-2.40;99.90
58309;DHT22;44117;57.142;24.826;2022-12-07T14:12:51;-2.40;99.90
58309;DHT22;44117;57.142;24.826;2022-12-07T14:15:27;-2.40;99.90
58309;DHT22;44117;57.142;24.826;2022-12-07T14:17:56;-2.40;99.90
58309;DHT22;44117;57.142;24.826;2022-12-07T14:20:40;-2.50;99.90
58309;DHT22;44117;57.142;24.826;2022-12-07T14:23:24;-2.40;99.90
58309;DHT22;44117;57.142;24.826;2022-12-07T14:25:53;-2.50;99.90
58309;DHT22;44117;57.142;24.826;2022-12-07T14:28:34;-2.50;99.90
58309;DHT22;44117;57.142;24.826;2022-12-07T14:31:03;-2.50;99.90
58309;DHT22;44117;57.142;24.826;2022-12-07T14:33:30;-2.50;99.90
58309;DHT22;44117;57.142;24.826;2022-12-07T14:35:58;-2.50;99.90
58309;DHT22;44117;57.142;24.826;2022-12-07T14:38:25;-2.50;99.90
58309;DHT22;44117;57.142;24.826;2022-12-07T14:40:54;-2.50;99.90
58309;DHT22;44117;57.142;24.826;2022-12-07T14:43:41;-2.50;99.90
58309;DHT22;44117;57.142;24.826;2022-12-07T14:46:29;-2.60;99.90
58309;DHT22;44117;57.142;24.826;2022-12-07T14:48:56;-2.50;99.90
58309;DHT22;44117;57.142;24.826;2022-12-07T14:51:45;-2.60;99.90
58309;DHT22;44117;57.142;24.826;2022-12-07T14:54:33;-2.60;99.90
58309;DHT22;44117;57.142;24.826;2022-12-07T14:57:01;-2.50;99.90
58309;DHT22;44117;57.142;24.826;2022-12-07T14:59:29;-2.50;99.90
58309;DHT22;44117;57.142;24.826;2022-12-07T15:01:56;-2.50;99.90
58309;DHT22;44117;57.142;24.826;2022-12-07T15:04:23;-2.50;99.90
58309;DHT22;44117;57.142;24.826;2022-12-07T15:06:56;-2.50;99.90
58309;DHT22;44117;57.142;24.826;2022-12-07T15:09:24;-2.50;99.90
58309;DHT22;44117;57.142;24.826;2022-12-07T15:11:52;-2.50;99.90
58309;DHT22;44117;57.142;24.826;2022-12-07T15:14:19;-2.50;99.90
58309;DHT22;44117;57.142;24.826;2022-12-07T15:16:46;-2.50;99.90
58309;DHT22;44117;57.142;24.826;2022-12-07T15:19:34;-2.50;99.90
58309;DHT22;44117;57.142;24.826;2022-12-07T15:22:01;-2.50;99.90
58309;DHT22;44117;57.142;24.826;2022-12-07T15:24:29;-2.50;99.90
58309;DHT22;44117;57.142;24.826;2022-12-07T15:26:56;-2.50;99.90
58309;DHT22;44117;57.142;24.826;2022-12-07T15:29:23;-2.50;99.90
58309;DHT22;44117;57.142;24.826;2022-12-07T15:31:51;-2.50;99.90
58309;DHT22;44117;57.142;24.826;2022-12-07T15:34:24;-2.50;99.90
58309;DHT22;44117;57.142;24.826;2022-12-07T15:36:52;-2.50;99.90
58309;DHT22;44117;57.142;24.826;2022-12-07T15:39:20;-2.50;99.90
58309;DHT22;44117;57.142;24.826;2022-12-07T15:41:48;-2.50;99.90
58309;DHT22;44117;57.142;24.826;2022-12-07T15:44:16;-2.50;99.90
58309;DHT22;44117;57.142;24.826;2022-12-07T15:47:05;-2.50;99.90
58309;DHT22;44117;57.142;24.826;2022-12-07T15:49:38;-2.50;99.90
58309;DHT22;44117;57.142;24.826;2022-12-07T15:52:06;-2.50;99.90
58309;DHT22;44117;57.142;24.826;2022-12-07T15:54:33;-2.50;99.90
58309;DHT22;44117;57.142;24.826;2022-12-07T15:57:01;-2.40;99.90
58309;DHT22;44117;57.142;24.826;2022-12-07T15:59:29;-2.40;99.90
58309;DHT22;44117;57.142;24.826;2022-12-07T16:01:57;-2.50;99.90
58309;DHT22;44117;57.142;24.826;2022-12-07T16:04:27;-2.40;99.90
58309;DHT22;44117;57.142;24.826;2022-12-07T16:06:55;-2.50;99.90
58309;DHT22;44117;57.142;24.826;2022-12-07T16:09:23;-2.50;99.90
58309;DHT22;44117;57.142;24.826;2022-12-07T16:11:50;-2.50;99.90
58309;DHT22;44117;57.142;24.826;2022-12-07T16:14:19;-2.50;99.90
58309;DHT22;44117;57.142;24.826;2022-12-07T16:16:47;-2.50;99.90
58309;DHT22;44117;57.142;24.826;2022-12-07T16:19:14;-2.50;99.90
58309;DHT22;44117;57.142;24.826;2022-12-07T16:21:42;-2.50;99.90
58309;DHT22;44117;57.142;24.826;2022-12-07T16:24:09;-2.40;99.90
58309;DHT22;44117;57.142;24.826;2022-12-07T16:26:37;-2.40;99.90
58309;DHT22;44117;57.142;24.826;2022-12-07T16:29:04;-2.40;99.90
58309;DHT22;44117;57.142;24.826;2022-12-07T16:31:31;-2.40;99.90
58309;DHT22;44117;57.142;24.826;2022-12-07T16:33:59;-2.40;99.90
58309;DHT22;44117;57.142;24.826;2022-12-07T16:36:27;-2.40;99.90
58309;DHT22;44117;57.142;24.826;2022-12-07T16:39:14;-2.40;99.90
58309;DHT22;44117;57.142;24.826;2022-12-07T16:41:42;-2.40;99.90
58309;DHT22;44117;57.142;24.826;2022-12-07T16:44:11;-2.40;99.90
58309;DHT22;44117;57.142;24.826;2022-12-07T16:46:40;-2.40;99.90
58309;DHT22;44117;57.142;24.826;2022-12-07T16:49:17;-2.40;99.90
58309;DHT22;44117;57.142;24.826;2022-12-07T16:51:45;-2.40;99.90
58309;DHT22;44117;57.142;24.826;2022-12-07T16:54:20;-2.40;99.90
58309;DHT22;44117;57.142;24.826;2022-12-07T16:56:47;-2.40;99.90
58309;DHT22;44117;57.142;24.826;2022-12-07T16:59:15;-2.40;99.90
58309;DHT22;44117;57.142;24.826;2022-12-07T17:01:42;-2.40;99.90
58309;DHT22;44117;57.142;24.826;2022-12-07T17:04:09;-2.40;99.90
58309;DHT22;44117;57.142;24.826;2022-12-07T17:06:37;-2.40;99.90
58309;DHT22;44117;57.142;24.826;2022-12-07T17:09:05;-2.40;99.90
58309;DHT22;44117;57.142;24.826;2022-12-07T17:11:35;-2.40;99.90
58309;DHT22;44117;57.142;24.826;2022-12-07T17:14:03;-2.50;99.90
58309;DHT22;44117;57.142;24.826;2022-12-07T17:16:49;-2.40;99.90
58309;DHT22;44117;57.142;24.826;2022-12-07T17:19:16;-2.40;99.90
58309;DHT22;44117;57.142;24.826;2022-12-07T17:21:44;-2.40;99.90
58309;DHT22;44117;57.142;24.826;2022-12-07T17:24:14;-2.50;99.90
58309;DHT22;44117;57.142;24.826;2022-12-07T17:26:43;-2.40;99.90
58309;DHT22;44117;57.142;24.826;2022-12-07T17:29:12;-2.40;99.90
58309;DHT22;44117;57.142;24.826;2022-12-07T17:31:40;-2.40;99.90
58309;DHT22;44117;57.142;24.826;2022-12-07T17:34:15;-2.40;99.90
58309;DHT22;44117;57.142;24.826;2022-12-07T17:36:42;-2.40;99.90
58309;DHT22;44117;57.142;24.826;2022-12-07T17:39:15;-2.40;99.90
58309;DHT22;44117;57.142;24.826;2022-12-07T17:41:43;-2.40;99.90
58309;DHT22;44117;57.142;24.826;2022-12-07T17:44:29;-2.40;99.90
58309;DHT22;44117;57.142;24.826;2022-12-07T17:46:57;-2.40;99.90